sensor_id;sensor_type;location;lat;lon;timestamp;temperature;humidity
1329;DHT22;658;48.820;9.354;2024-02-15T00:04:00;22.40;42.50
1329;DHT22;658;48.820;9.354;2024-02-15T00:08:01;22.40;42.50
1329;DHT22;658;48.820;9.354;2024-02-15T00:12:04;22.40;42.50
1329;DHT22;658;48.820;9.354;2024-02-15T00:16:05;22.40;42.50
1329;DHT22;658;48.820;9.354;2024-02-15T00:20:06;22.40;42.50
1329;DHT22;658;48.820;9.354;2024-02-15T00:24:09;22.40;42.50
1329;DHT22;658;48.820;9.354;2024-02-15T00:28:11;22.30;42.50
1329;DHT22;658;48.820;9.354;2024-02-15T00:32:13;22.40;42.60
1329;DHT22;658;48.820;9.354;2024-02-15T00:36:13;22.40;42.60
1329;DHT22;658;48.820;9.354;2024-02-15T00:40:14;22.30;42.60
1329;DHT22;658;48.820;9.354;2024-02-15T00:44:15;22.30;42.50
1329;DHT22;658;48.820;9.354;2024-02-15T00:48:15;22.40;42.60
1329;DHT22;658;48.820;9.354;2024-02-15T00:52:16;22.30;42.50
1329;DHT22;658;48.820;9.354;2024-02-15T00:56:20;22.30;42.50
1329;DHT22;658;48.820;9.354;2024-02-15T01:00:20;22.30;42.60
1329;DHT22;658;48.820;9.354;2024-02-15T01:04:21;22.30;42.60
1329;DHT22;658;48.820;9.354;2024-02-15T01:08:22;22.30;42.80
1329;DHT22;658;48.820;9.354;2024-02-15T01:12:22;22.30;42.60
1329;DHT22;658;48.820;9.354;2024-02-15T01:16:24;22.30;42.70
1329;DHT22;658;48.820;9.354;2024-02-15T01:20:27;22.20;42.60
1329;DHT22;658;48.820;9.354;2024-02-15T01:24:28;22.20;42.70
1329;DHT22;658;48.820;9.354;2024-02-15T01:28:28;22.20;42.70
1329;DHT22;658;48.820;9.354;2024-02-15T01:32:29;22.20;42.70
1329;DHT22;658;48.820;9.354;2024-02-15T01:36:30;22.20;42.70
1329;DHT22;658;48.820;9.354;2024-02-15T01:40:31;22.20;42.80
1329;DHT22;658;48.820;9.354;2024-02-15T01:44:34;22.20;42.80
1329;DHT22;658;48.820;9.354;2024-02-15T01:48:37;22.20;42.90
1329;DHT22;658;48.820;9.354;2024-02-15T01:52:43;22.20;42.80
1329;DHT22;658;48.820;9.354;2024-02-15T01:56:47;22.10;42.90
1329;DHT22;658;48.820;9.354;2024-02-15T02:00:48;22.10;43.00
1329;DHT22;658;48.820;9.354;2024-02-15T02:04:49;22.10;42.90
1329;DHT22;658;48.820;9.354;2024-02-15T02:08:50;22.10;43.00
1329;DHT22;658;48.820;9.354;2024-02-15T02:12:51;22.10;42.90
1329;DHT22;658;48.820;9.354;2024-02-15T02:16:51;22.10;42.80
1329;DHT22;658;48.820;9.354;2024-02-15T02:20:52;22.10;42.90
1329;DHT22;658;48.820;9.354;2024-02-15T02:24:59;22.10;42.80
1329;DHT22;658;48.820;9.354;2024-02-15T02:28:59;22.00;42.80
1329;DHT22;658;48.820;9.354;2024-02-15T02:33:00;22.00;42.70
1329;DHT22;658;48.820;9.354;2024-02-15T02:37:01;22.00;42.80
1329;DHT22;658;48.820;9.354;2024-02-15T02:41:07;22.00;42.80
1329;DHT22;658;48.820;9.354;2024-02-15T02:45:08;22.00;42.80
1329;DHT22;658;48.820;9.354;2024-02-15T02:49:09;22.00;42.70
1329;DHT22;658;48.820;9.354;2024-02-15T02:53:09;22.00;42.80
1329;DHT22;658;48.820;9.354;2024-02-15T02:57:11;22.00;42.80
1329;DHT22;658;48.820;9.354;2024-02-15T03:01:12;22.00;42.80
1329;DHT22;658;48.820;9.354;2024-02-15T03:05:15;22.00;42.80
1329;DHT22;658;48.820;9.354;2024-02-15T03:09:15;22.00;42.80
1329;DHT22;658;48.820;9.354;2024-02-15T03:13:16;22.00;42.80
1329;DHT22;658;48.820;9.354;2024-02-15T03:17:19;22.00;42.80
1329;DHT22;658;48.820;9.354;2024-02-15T03:21:20;22.00;42.80
1329;DHT22;658;48.820;9.354;2024-02-15T03:25:21;22.00;42.80
1329;DHT22;658;48.820;9.354;2024-02-15T03:29:24;22.00;42.80
1329;DHT22;658;48.820;9.354;2024-02-15T03:33:25;21.90;42.70
1329;DHT22;658;48.820;9.354;2024-02-15T03:37:28;22.00;42.80
1329;DHT22;658;48.820;9.354;2024-02-15T03:41:29;21.90;42.70
1329;DHT22;658;48.820;9.354;2024-02-15T03:45:33;21.90;42.70
1329;DHT22;658;48.820;9.354;2024-02-15T03:49:33;21.90;42.70
1329;DHT22;658;48.820;9.354;2024-02-15T03:53:34;21.90;42.60
1329;DHT22;658;48.820;9.354;2024-02-15T03:57:40;21.90;42.60
1329;DHT22;658;48.820;9.354;2024-02-15T04:01:41;21.90;42.70
1329;DHT22;658;48.820;9.354;2024-02-15T04:05:42;21.90;42.80
1329;DHT22;658;48.820;9.354;2024-02-15T04:09:42;21.90;42.80
1329;DHT22;658;48.820;9.354;2024-02-15T04:13:43;21.90;42.80
1329;DHT22;658;48.820;9.354;2024-02-15T04:17:44;21.90;42.70
1329;DHT22;658;48.820;9.354;2024-02-15T04:21:47;21.90;42.80
1329;DHT22;658;48.820;9.354;2024-02-15T04:25:48;21.90;42.70
1329;DHT22;658;48.820;9.354;2024-02-15T04:29:51;21.90;42.80
1329;DHT22;658;48.820;9.354;2024-02-15T04:33:55;21.90;42.80
1329;DHT22;658;48.820;9.354;2024-02-15T04:37:55;21.90;42.80
1329;DHT22;658;48.820;9.354;2024-02-15T04:41:58;21.90;42.90
1329;DHT22;658;48.820;9.354;2024-02-15T04:45:59;21.90;42.90
1329;DHT22;658;48.820;9.354;2024-02-15T04:50:01;21.80;42.80
1329;DHT22;658;48.820;9.354;2024-02-15T04:54:02;21.80;42.80
1329;DHT22;658;48.820;9.354;2024-02-15T04:58:03;21.80;42.90
1329;DHT22;658;48.820;9.354;2024-02-15T05:02:04;21.80;42.90
1329;DHT22;658;48.820;9.354;2024-02-15T05:06:05;21.80;42.90
1329;DHT22;658;48.820;9.354;2024-02-15T05:10:08;21.80;42.90
1329;DHT22;658;48.820;9.354;2024-02-15T05:14:09;21.80;42.90
1329;DHT22;658;48.820;9.354;2024-02-15T05:18:13;21.80;43.00
1329;DHT22;658;48.820;9.354;2024-02-15T05:22:14;21.80;43.00
1329;DHT22;658;48.820;9.354;2024-02-15T05:26:15;21.80;43.00
1329;DHT22;658;48.820;9.354;2024-02-15T05:30:24;21.80;43.00
1329;DHT22;658;48.820;9.354;2024-02-15T05:34:25;21.80;43.10
1329;DHT22;658;48.820;9.354;2024-02-15T05:38:25;21.70;43.00
1329;DHT22;658;48.820;9.354;2024-02-15T05:42:30;21.80;43.10
1329;DHT22;658;48.820;9.354;2024-02-15T05:46:30;21.80;43.20
1329;DHT22;658;48.820;9.354;2024-02-15T05:50:31;21.80;43.20
1329;DHT22;658;48.820;9.354;2024-02-15T05:54:32;21.80;43.30
1329;DHT22;658;48.820;9.354;2024-02-15T05:58:33;21.80;43.80
1329;DHT22;658;48.820;9.354;2024-02-15T06:02:33;21.80;43.30
1329;DHT22;658;48.820;9.354;2024-02-15T06:06:34;21.80;43.30
1329;DHT22;658;48.820;9.354;2024-02-15T06:10:35;21.80;43.90
1329;DHT22;658;48.820;9.354;2024-02-15T06:14:35;21.80;43.30
1329;DHT22;658;48.820;9.354;2024-02-15T06:18:38;21.80;43.40
1329;DHT22;658;48.820;9.354;2024-02-15T06:22:39;21.80;43.40
1329;DHT22;658;48.820;9.354;2024-02-15T06:26:39;21.90;43.40
1329;DHT22;658;48.820;9.354;2024-02-15T06:30:40;21.90;43.50
1329;DHT22;658;48.820;9.354;2024-02-15T06:34:59;21.80;43.40
1329;DHT22;658;48.820;9.354;2024-02-15T06:39:18;21.90;43.50
1329;DHT22;658;48.820;9.354;2024-02-15T06:43:40;21.90;43.60
1329;DHT22;658;48.820;9.354;2024-02-15T06:47:44;21.90;43.60
1329;DHT22;658;48.820;9.354;2024-02-15T06:51:47;21.90;43.60
1329;DHT22;658;48.820;9.354;2024-02-15T06:55:50;21.90;43.60
1329;DHT22;658;48.820;9.354;2024-02-15T06:59:51;21.90;43.50
1329;DHT22;658;48.820;9.354;2024-02-15T07:03:52;22.00;43.50
1329;DHT22;658;48.820;9.354;2024-02-15T07:07:52;22.00;43.60
1329;DHT22;658;48.820;9.354;2024-02-15T07:11:53;22.00;43.50
1329;DHT22;658;48.820;9.354;2024-02-15T07:15:54;22.00;43.50
1329;DHT22;658;48.820;9.354;2024-02-15T07:19:59;22.00;43.50
1329;DHT22;658;48.820;9.354;2024-02-15T07:23:59;22.00;43.40
1329;DHT22;658;48.820;9.354;2024-02-15T07:28:00;22.00;43.40
1329;DHT22;658;48.820;9.354;2024-02-15T07:32:01;22.00;43.40
1329;DHT22;658;48.820;9.354;2024-02-15T07:36:05;22.00;43.40
1329;DHT22;658;48.820;9.354;2024-02-15T07:40:06;22.00;43.40
1329;DHT22;658;48.820;9.354;2024-02-15T07:44:08;21.70;43.90
1329;DHT22;658;48.820;9.354;2024-02-15T07:48:11;21.60;45.10
1329;DHT22;658;48.820;9.354;2024-02-15T07:52:14;21.70;45.70
1329;DHT22;658;48.820;9.354;2024-02-15T07:56:16;21.80;46.10
1329;DHT22;658;48.820;9.354;2024-02-15T08:00:17;21.90;46.40
1329;DHT22;658;48.820;9.354;2024-02-15T08:04:20;21.90;46.20
1329;DHT22;658;48.820;9.354;2024-02-15T08:08:21;22.00;46.60
1329;DHT22;658;48.820;9.354;2024-02-15T08:12:22;22.00;46.80
1329;DHT22;658;48.820;9.354;2024-02-15T08:16:23;22.10;47.10
1329;DHT22;658;48.820;9.354;2024-02-15T08:20:23;22.10;47.10
1329;DHT22;658;48.820;9.354;2024-02-15T08:24:24;22.20;47.10
1329;DHT22;658;48.820;9.354;2024-02-15T08:28:24;22.30;46.90
1329;DHT22;658;48.820;9.354;2024-02-15T08:32:25;22.30;47.20
1329;DHT22;658;48.820;9.354;2024-02-15T08:36:26;22.40;47.10
1329;DHT22;658;48.820;9.354;2024-02-15T08:40:26;22.40;47.20
1329;DHT22;658;48.820;9.354;2024-02-15T08:44:28;22.40;47.20
1329;DHT22;658;48.820;9.354;2024-02-15T08:48:28;22.50;48.00
1329;DHT22;658;48.820;9.354;2024-02-15T08:52:30;22.50;48.10
1329;DHT22;658;48.820;9.354;2024-02-15T08:56:36;22.50;48.10
1329;DHT22;658;48.820;9.354;2024-02-15T09:00:39;22.60;48.50
1329;DHT22;658;48.820;9.354;2024-02-15T09:04:44;22.60;48.70
1329;DHT22;658;48.820;9.354;2024-02-15T09:08:46;22.60;48.60
1329;DHT22;658;48.820;9.354;2024-02-15T09:12:47;22.70;48.70
1329;DHT22;658;48.820;9.354;2024-02-15T09:16:49;22.70;48.80
1329;DHT22;658;48.820;9.354;2024-02-15T09:20:49;22.70;48.70
1329;DHT22;658;48.820;9.354;2024-02-15T09:24:55;22.70;48.80
1329;DHT22;658;48.820;9.354;2024-02-15T09:28:56;22.70;48.70
1329;DHT22;658;48.820;9.354;2024-02-15T09:32:57;22.70;48.90
1329;DHT22;658;48.820;9.354;2024-02-15T09:36:57;22.80;49.00
1329;DHT22;658;48.820;9.354;2024-02-15T09:41:15;22.80;49.00
1329;DHT22;658;48.820;9.354;2024-02-15T09:45:16;22.80;49.40
1329;DHT22;658;48.820;9.354;2024-02-15T09:49:18;22.90;49.30
1329;DHT22;658;48.820;9.354;2024-02-15T09:53:22;22.90;49.40
1329;DHT22;658;48.820;9.354;2024-02-15T09:57:29;22.90;49.30
1329;DHT22;658;48.820;9.354;2024-02-15T10:01:34;23.00;49.50
1329;DHT22;658;48.820;9.354;2024-02-15T10:05:36;23.00;49.20
1329;DHT22;658;48.820;9.354;2024-02-15T10:09:37;23.10;49.40
1329;DHT22;658;48.820;9.354;2024-02-15T10:13:40;23.20;49.40
1329;DHT22;658;48.820;9.354;2024-02-15T10:17:41;23.20;49.20
1329;DHT22;658;48.820;9.354;2024-02-15T10:21:42;23.20;49.20
1329;DHT22;658;48.820;9.354;2024-02-15T10:25:42;22.90;44.00
1329;DHT22;658;48.820;9.354;2024-02-15T10:29:46;22.90;46.10
1329;DHT22;658;48.820;9.354;2024-02-15T10:33:48;23.00;46.60
1329;DHT22;658;48.820;9.354;2024-02-15T10:37:49;23.10;47.00
1329;DHT22;658;48.820;9.354;2024-02-15T10:41:54;23.20;47.20
1329;DHT22;658;48.820;9.354;2024-02-15T10:45:55;23.40;47.40
1329;DHT22;658;48.820;9.354;2024-02-15T10:49:57;23.50;47.40
1329;DHT22;658;48.820;9.354;2024-02-15T10:54:02;23.60;47.30
1329;DHT22;658;48.820;9.354;2024-02-15T10:58:06;23.70;47.10
1329;DHT22;658;48.820;9.354;2024-02-15T11:02:38;23.80;47.10
1329;DHT22;658;48.820;9.354;2024-02-15T11:06:43;23.90;46.90
1329;DHT22;658;48.820;9.354;2024-02-15T11:10:45;24.10;47.10
1329;DHT22;658;48.820;9.354;2024-02-15T11:14:46;24.20;46.70
1329;DHT22;658;48.820;9.354;2024-02-15T11:18:49;24.40;47.40
1329;DHT22;658;48.820;9.354;2024-02-15T11:23:01;24.50;46.70
1329;DHT22;658;48.820;9.354;2024-02-15T11:27:05;24.70;46.50
1329;DHT22;658;48.820;9.354;2024-02-15T11:31:10;24.80;46.10
1329;DHT22;658;48.820;9.354;2024-02-15T11:35:20;25.00;45.90
1329;DHT22;658;48.820;9.354;2024-02-15T11:39:41;25.20;45.60
1329;DHT22;658;48.820;9.354;2024-02-15T11:43:51;25.40;45.20
1329;DHT22;658;48.820;9.354;2024-02-15T11:47:56;25.60;44.80
1329;DHT22;658;48.820;9.354;2024-02-15T11:51:56;25.90;44.30
1329;DHT22;658;48.820;9.354;2024-02-15T11:56:09;26.00;43.70
1329;DHT22;658;48.820;9.354;2024-02-15T12:00:25;26.20;43.30
1329;DHT22;658;48.820;9.354;2024-02-15T12:04:44;26.40;42.90
1329;DHT22;658;48.820;9.354;2024-02-15T12:09:05;26.50;42.30
1329;DHT22;658;48.820;9.354;2024-02-15T12:13:24;26.70;42.10
1329;DHT22;658;48.820;9.354;2024-02-15T12:18:16;26.80;41.80
1329;DHT22;658;48.820;9.354;2024-02-15T12:22:40;27.00;41.50
1329;DHT22;658;48.820;9.354;2024-02-15T12:26:42;27.10;41.10
1329;DHT22;658;48.820;9.354;2024-02-15T12:30:42;27.20;40.80
1329;DHT22;658;48.820;9.354;2024-02-15T12:34:45;27.40;40.70
1329;DHT22;658;48.820;9.354;2024-02-15T12:38:59;27.40;40.40
1329;DHT22;658;48.820;9.354;2024-02-15T12:42:59;27.40;40.30
1329;DHT22;658;48.820;9.354;2024-02-15T12:47:00;27.40;40.30
1329;DHT22;658;48.820;9.354;2024-02-15T12:51:15;27.40;40.40
1329;DHT22;658;48.820;9.354;2024-02-15T12:55:18;27.20;40.40
1329;DHT22;658;48.820;9.354;2024-02-15T12:59:22;27.10;40.60
1329;DHT22;658;48.820;9.354;2024-02-15T13:03:24;27.00;40.70
1329;DHT22;658;48.820;9.354;2024-02-15T13:07:25;26.90;40.80
1329;DHT22;658;48.820;9.354;2024-02-15T13:11:27;26.80;41.00
1329;DHT22;658;48.820;9.354;2024-02-15T13:15:28;26.60;41.00
1329;DHT22;658;48.820;9.354;2024-02-15T13:19:33;26.50;39.80
1329;DHT22;658;48.820;9.354;2024-02-15T13:23:36;26.30;39.40
1329;DHT22;658;48.820;9.354;2024-02-15T13:27:39;26.00;40.60
1329;DHT22;658;48.820;9.354;2024-02-15T13:31:39;25.70;44.10
1329;DHT22;658;48.820;9.354;2024-02-15T13:35:41;25.60;45.10
1329;DHT22;658;48.820;9.354;2024-02-15T13:39:42;25.60;46.40
1329;DHT22;658;48.820;9.354;2024-02-15T13:43:46;25.50;47.70
1329;DHT22;658;48.820;9.354;2024-02-15T13:47:46;25.40;48.40
1329;DHT22;658;48.820;9.354;2024-02-15T13:51:47;25.30;49.30
1329;DHT22;658;48.820;9.354;2024-02-15T13:55:49;25.30;49.70
1329;DHT22;658;48.820;9.354;2024-02-15T13:59:52;25.30;49.80
1329;DHT22;658;48.820;9.354;2024-02-15T14:03:55;25.30;50.30
1329;DHT22;658;48.820;9.354;2024-02-15T14:07:58;25.30;50.20
1329;DHT22;658;48.820;9.354;2024-02-15T14:11:59;25.30;50.40
1329;DHT22;658;48.820;9.354;2024-02-15T14:16:02;25.30;50.80
1329;DHT22;658;48.820;9.354;2024-02-15T14:20:04;25.40;51.00
1329;DHT22;658;48.820;9.354;2024-02-15T14:24:09;25.40;51.20
1329;DHT22;658;48.820;9.354;2024-02-15T14:28:09;25.30;51.60
1329;DHT22;658;48.820;9.354;2024-02-15T14:32:13;25.30;51.90
1329;DHT22;658;48.820;9.354;2024-02-15T14:36:33;25.30;52.30
1329;DHT22;658;48.820;9.354;2024-02-15T14:40:43;25.30;52.50
1329;DHT22;658;48.820;9.354;2024-02-15T14:44:57;25.20;53.00
1329;DHT22;658;48.820;9.354;2024-02-15T14:48:58;25.10;53.20
1329;DHT22;658;48.820;9.354;2024-02-15T14:52:59;25.00;53.30
1329;DHT22;658;48.820;9.354;2024-02-15T14:57:01;25.00;53.90
1329;DHT22;658;48.820;9.354;2024-02-15T15:01:02;25.00;53.50
1329;DHT22;658;48.820;9.354;2024-02-15T15:05:03;25.00;53.70
1329;DHT22;658;48.820;9.354;2024-02-15T15:09:22;24.90;53.70
1329;DHT22;658;48.820;9.354;2024-02-15T15:13:42;24.90;53.80
1329;DHT22;658;48.820;9.354;2024-02-15T15:17:42;24.80;54.20
1329;DHT22;658;48.820;9.354;2024-02-15T15:21:43;24.80;54.10
1329;DHT22;658;48.820;9.354;2024-02-15T15:25:47;24.80;54.50
1329;DHT22;658;48.820;9.354;2024-02-15T15:29:47;24.80;54.40
1329;DHT22;658;48.820;9.354;2024-02-15T15:33:48;24.80;54.70
1329;DHT22;658;48.820;9.354;2024-02-15T15:37:53;24.80;54.90
1329;DHT22;658;48.820;9.354;2024-02-15T15:41:57;24.70;54.90
1329;DHT22;658;48.820;9.354;2024-02-15T15:46:00;24.70;54.90
1329;DHT22;658;48.820;9.354;2024-02-15T15:50:02;24.70;55.10
1329;DHT22;658;48.820;9.354;2024-02-15T15:54:06;24.60;55.30
1329;DHT22;658;48.820;9.354;2024-02-15T15:58:07;24.60;55.70
1329;DHT22;658;48.820;9.354;2024-02-15T16:02:07;24.50;55.50
1329;DHT22;658;48.820;9.354;2024-02-15T16:06:08;24.50;55.70
1329;DHT22;658;48.820;9.354;2024-02-15T16:10:09;24.40;55.70
1329;DHT22;658;48.820;9.354;2024-02-15T16:14:12;24.40;56.10
1329;DHT22;658;48.820;9.354;2024-02-15T16:18:13;24.30;56.10
1329;DHT22;658;48.820;9.354;2024-02-15T16:22:14;24.30;56.10
1329;DHT22;658;48.820;9.354;2024-02-15T16:26:15;24.20;56.00
1329;DHT22;658;48.820;9.354;2024-02-15T16:30:16;24.20;56.20
1329;DHT22;658;48.820;9.354;2024-02-15T16:34:17;24.20;56.20
1329;DHT22;658;48.820;9.354;2024-02-15T16:38:18;24.10;56.40
1329;DHT22;658;48.820;9.354;2024-02-15T16:42:18;24.10;56.50
1329;DHT22;658;48.820;9.354;2024-02-15T16:46:19;23.90;50.80
1329;DHT22;658;48.820;9.354;2024-02-15T16:50:23;23.80;50.80
1329;DHT22;658;48.820;9.354;2024-02-15T16:54:24;23.60;49.70
1329;DHT22;658;48.820;9.354;2024-02-15T16:58:25;23.50;49.20
1329;DHT22;658;48.820;9.354;2024-02-15T17:02:26;23.40;48.60
1329;DHT22;658;48.820;9.354;2024-02-15T17:06:31;23.30;48.30
1329;DHT22;658;48.820;9.354;2024-02-15T17:10:39;23.20;47.70
1329;DHT22;658;48.820;9.354;2024-02-15T17:14:40;23.20;47.60
1329;DHT22;658;48.820;9.354;2024-02-15T17:18:41;23.10;47.50
1329;DHT22;658;48.820;9.354;2024-02-15T17:22:44;23.10;50.00
1329;DHT22;658;48.820;9.354;2024-02-15T17:26:48;23.10;50.50
1329;DHT22;658;48.820;9.354;2024-02-15T17:30:49;23.10;51.50
1329;DHT22;658;48.820;9.354;2024-02-15T17:34:49;23.10;50.80
1329;DHT22;658;48.820;9.354;2024-02-15T17:38:50;23.10;51.60
1329;DHT22;658;48.820;9.354;2024-02-15T17:42:51;23.10;51.60
1329;DHT22;658;48.820;9.354;2024-02-15T17:46:51;23.10;51.80
1329;DHT22;658;48.820;9.354;2024-02-15T17:50:52;23.10;52.40
1329;DHT22;658;48.820;9.354;2024-02-15T17:54:53;23.10;52.40
1329;DHT22;658;48.820;9.354;2024-02-15T17:58:54;23.10;52.80
1329;DHT22;658;48.820;9.354;2024-02-15T18:02:55;23.10;53.20
1329;DHT22;658;48.820;9.354;2024-02-15T18:06:56;23.10;53.30
1329;DHT22;658;48.820;9.354;2024-02-15T18:10:56;23.10;53.30
1329;DHT22;658;48.820;9.354;2024-02-15T18:15:00;23.10;53.80
1329;DHT22;658;48.820;9.354;2024-02-15T18:19:01;23.10;53.80
1329;DHT22;658;48.820;9.354;2024-02-15T18:23:04;23.10;53.70
1329;DHT22;658;48.820;9.354;2024-02-15T18:27:05;23.10;54.00
1329;DHT22;658;48.820;9.354;2024-02-15T18:31:06;23.10;54.00
1329;DHT22;658;48.820;9.354;2024-02-15T18:35:11;23.10;53.80
1329;DHT22;658;48.820;9.354;2024-02-15T18:39:12;23.10;53.80
1329;DHT22;658;48.820;9.354;2024-02-15T18:43:12;23.10;53.50
1329;DHT22;658;48.820;9.354;2024-02-15T18:47:17;23.10;53.90
1329;DHT22;658;48.820;9.354;2024-02-15T18:51:17;23.10;54.30
1329;DHT22;658;48.820;9.354;2024-02-15T18:55:20;23.10;54.00
1329;DHT22;658;48.820;9.354;2024-02-15T18:59:22;23.10;54.60
1329;DHT22;658;48.820;9.354;2024-02-15T19:03:26;23.10;54.20
1329;DHT22;658;48.820;9.354;2024-02-15T19:07:26;23.10;53.90
1329;DHT22;658;48.820;9.354;2024-02-15T19:11:36;23.00;54.00
1329;DHT22;658;48.820;9.354;2024-02-15T19:16:17;23.00;54.50
1329;DHT22;658;48.820;9.354;2024-02-15T19:20:41;23.10;53.50
1329;DHT22;658;48.820;9.354;2024-02-15T19:24:42;23.10;53.40
1329;DHT22;658;48.820;9.354;2024-02-15T19:28:42;23.10;53.40
1329;DHT22;658;48.820;9.354;2024-02-15T19:32:48;23.10;53.50
1329;DHT22;658;48.820;9.354;2024-02-15T19:37:19;23.20;53.80
1329;DHT22;658;48.820;9.354;2024-02-15T19:41:30;23.20;53.00
1329;DHT22;658;48.820;9.354;2024-02-15T19:45:31;23.20;52.90
1329;DHT22;658;48.820;9.354;2024-02-15T19:49:37;23.30;52.80
1329;DHT22;658;48.820;9.354;2024-02-15T19:53:39;23.30;53.00
1329;DHT22;658;48.820;9.354;2024-02-15T19:57:42;23.30;53.00
1329;DHT22;658;48.820;9.354;2024-02-15T20:01:42;23.30;52.60
1329;DHT22;658;48.820;9.354;2024-02-15T20:05:52;23.30;53.20
1329;DHT22;658;48.820;9.354;2024-02-15T20:09:55;23.30;53.00
1329;DHT22;658;48.820;9.354;2024-02-15T20:13:56;23.30;52.80
1329;DHT22;658;48.820;9.354;2024-02-15T20:17:57;23.30;53.10
1329;DHT22;658;48.820;9.354;2024-02-15T20:21:59;23.40;53.40
1329;DHT22;658;48.820;9.354;2024-02-15T20:25:59;23.40;53.20
1329;DHT22;658;48.820;9.354;2024-02-15T20:30:01;23.40;53.20
1329;DHT22;658;48.820;9.354;2024-02-15T20:34:02;23.40;53.10
1329;DHT22;658;48.820;9.354;2024-02-15T20:38:05;23.40;52.70
1329;DHT22;658;48.820;9.354;2024-02-15T20:42:06;23.40;52.30
1329;DHT22;658;48.820;9.354;2024-02-15T20:46:07;23.40;52.40
1329;DHT22;658;48.820;9.354;2024-02-15T20:50:10;23.50;52.50
1329;DHT22;658;48.820;9.354;2024-02-15T20:54:13;23.40;52.30
1329;DHT22;658;48.820;9.354;2024-02-15T20:58:16;23.50;52.30
1329;DHT22;658;48.820;9.354;2024-02-15T21:02:19;23.50;52.30
1329;DHT22;658;48.820;9.354;2024-02-15T21:06:21;23.50;52.30
1329;DHT22;658;48.820;9.354;2024-02-15T21:10:22;23.50;52.20
1329;DHT22;658;48.820;9.354;2024-02-15T21:14:23;23.50;52.10
1329;DHT22;658;48.820;9.354;2024-02-15T21:18:24;23.50;52.00
1329;DHT22;658;48.820;9.354;2024-02-15T21:22:26;23.50;51.80
1329;DHT22;658;48.820;9.354;2024-02-15T21:26:30;23.50;51.80
1329;DHT22;658;48.820;9.354;2024-02-15T21:30:30;23.50;51.60
1329;DHT22;658;48.820;9.354;2024-02-15T21:34:31;23.50;51.50
1329;DHT22;658;48.820;9.354;2024-02-15T21:38:32;23.50;51.40
1329;DHT22;658;48.820;9.354;2024-02-15T21:42:33;23.50;51.20
1329;DHT22;658;48.820;9.354;2024-02-15T21:46:34;23.50;51.20
1329;DHT22;658;48.820;9.354;2024-02-15T21:50:35;23.50;51.10
1329;DHT22;658;48.820;9.354;2024-02-15T21:54:38;23.50;50.70
1329;DHT22;658;48.820;9.354;2024-02-15T21:58:40;23.50;50.60
1329;DHT22;658;48.820;9.354;2024-02-15T22:02:41;23.50;50.40
1329;DHT22;658;48.820;9.354;2024-02-15T22:06:45;23.50;50.40
1329;DHT22;658;48.820;9.354;2024-02-15T22:10:46;23.40;50.20
1329;DHT22;658;48.820;9.354;2024-02-15T22:14:49;23.30;50.10
1329;DHT22;658;48.820;9.354;2024-02-15T22:18:52;23.30;50.10
1329;DHT22;658;48.820;9.354;2024-02-15T22:22:53;23.30;50.00
1329;DHT22;658;48.820;9.354;2024-02-15T22:26:54;23.30;50.10
1329;DHT22;658;48.820;9.354;2024-02-15T22:30:58;23.30;50.00
1329;DHT22;658;48.820;9.354;2024-02-15T22:34:59;23.20;49.70
1329;DHT22;658;48.820;9.354;2024-02-15T22:39:02;23.20;49.70
1329;DHT22;658;48.820;9.354;2024-02-15T22:43:03;23.20;49.60
1329;DHT22;658;48.820;9.354;2024-02-15T22:47:04;23.20;49.60
1329;DHT22;658;48.820;9.354;2024-02-15T22:51:05;23.20;49.50
1329;DHT22;658;48.820;9.354;2024-02-15T22:55:05;23.10;49.60
1329;DHT22;658;48.820;9.354;2024-02-15T22:59:06;23.10;49.40
1329;DHT22;658;48.820;9.354;2024-02-15T23:03:09;23.10;49.40
1329;DHT22;658;48.820;9.354;2024-02-15T23:07:10;23.00;49.10
1329;DHT22;658;48.820;9.354;2024-02-15T23:11:11;23.00;49.20
1329;DHT22;658;48.820;9.354;2024-02-15T23:15:11;23.00;49.00
1329;DHT22;658;48.820;9.354;2024-02-15T23:19:15;23.00;49.20
1329;DHT22;658;48.820;9.354;2024-02-15T23:23:17;23.00;49.00
1329;DHT22;658;48.820;9.354;2024-02-15T23:27:17;22.90;48.90
1329;DHT22;658;48.820;9.354;2024-02-15T23:31:18;22.90;48.80
1329;DHT22;658;48.820;9.354;2024-02-15T23:35:19;22.90;48.70
1329;DHT22;658;48.820;9.354;2024-02-15T23:39:19;22.90;48.80
1329;DHT22;658;48.820;9.354;2024-02-15T23:43:36;22.90;48.60
1329;DHT22;658;48.820;9.354;2024-02-15T23:47:39;22.80;48.60
1329;DHT22;658;48.820;9.354;2024-02-15T23:51:39;22.80;48.50
1329;DHT22;658;48.820;9.354;2024-02-15T23:55:45;22.80;48.40
1329;DHT22;658;48.820;9.354;2024-02-15T23:59:48;22.80;48.30
